createdAt,value
2019-02-06T00:03:39.900Z,68.50
2019-02-06T00:07:44.466Z,68.80
2019-02-06T00:11:49.168Z,69.10
2019-02-06T00:15:53.860Z,68.80
2019-02-06T00:19:59.793Z,68.70
2019-02-06T00:24:04.385Z,69.60
2019-02-06T00:28:09.013Z,69.00
2019-02-06T00:32:14.227Z,68.70
2019-02-06T00:36:18.836Z,68.50
2019-02-06T00:40:23.924Z,68.40
2019-02-06T00:44:28.544Z,67.90
2019-02-06T00:48:33.348Z,67.70
2019-02-06T00:52:38.201Z,67.30
2019-02-06T00:56:42.784Z,68.10
2019-02-06T01:00:47.592Z,68.20
2019-02-06T01:04:52.155Z,69.00
2019-02-06T01:08:56.729Z,70.40
2019-02-06T01:13:01.481Z,70.60
2019-02-06T01:17:06.089Z,70.60
2019-02-06T01:21:10.840Z,71.40
2019-02-06T01:25:15.781Z,71.20
2019-02-06T01:29:20.333Z,71.50
2019-02-06T01:33:25.445Z,72.40
2019-02-06T01:37:29.993Z,72.40
2019-02-06T01:41:34.745Z,72.00
2019-02-06T01:45:39.393Z,71.30
2019-02-06T01:49:44.853Z,71.50
2019-02-06T01:53:49.551Z,70.90
2019-02-06T01:57:54.173Z,70.50
2019-02-06T02:01:58.954Z,72.90
2019-02-06T02:06:03.665Z,72.30
2019-02-06T02:10:08.768Z,72.20
2019-02-06T02:14:14.513Z,72.70
2019-02-06T02:18:19.575Z,71.60
2019-02-06T02:22:24.420Z,71.50
2019-02-06T02:26:29.020Z,70.90
2019-02-06T02:30:39.980Z,70.60
2019-02-06T02:34:45.035Z,70.00
2019-02-06T02:38:49.729Z,70.30
2019-02-06T02:42:54.450Z,69.90
2019-02-06T02:46:59.038Z,69.50
2019-02-06T02:51:03.918Z,69.20
2019-02-06T02:55:09.224Z,68.40
2019-02-06T02:59:14.084Z,69.40
2019-02-06T03:03:37.750Z,68.70
2019-02-06T03:07:42.495Z,69.20
2019-02-06T03:11:47.091Z,69.20
2019-02-06T03:15:52.248Z,69.60
2019-02-06T03:19:57.017Z,69.40
2019-02-06T03:24:01.561Z,69.00
2019-02-06T03:28:06.147Z,68.80
2019-02-06T03:32:10.926Z,68.50
2019-02-06T03:36:15.503Z,68.80
2019-02-06T03:40:20.296Z,68.40
2019-02-06T03:44:24.841Z,69.20
2019-02-06T03:48:29.453Z,69.20
2019-02-06T03:52:34.525Z,69.00
2019-02-06T03:56:39.090Z,69.40
2019-02-06T04:00:44.518Z,69.70
2019-02-06T04:04:49.054Z,70.40
2019-02-06T04:08:53.713Z,70.00
2019-02-06T04:12:58.284Z,70.30
2019-02-06T04:17:02.839Z,72.10
2019-02-06T04:21:07.503Z,72.20
2019-02-06T04:25:12.404Z,72.00
2019-02-06T04:29:17.015Z,71.20
2019-02-06T04:33:21.594Z,72.60
2019-02-06T04:37:26.168Z,72.50
2019-02-06T04:41:33.401Z,71.70
2019-02-06T04:45:37.952Z,71.60
2019-02-06T04:49:42.966Z,71.20
2019-02-06T04:53:47.779Z,72.00
2019-02-06T04:57:52.418Z,71.60
2019-02-06T05:01:57.117Z,70.40
2019-02-06T05:06:01.693Z,69.70
2019-02-06T05:10:08.452Z,69.20
2019-02-06T05:14:13.124Z,69.60
2019-02-06T05:18:17.748Z,69.90
2019-02-06T05:22:22.576Z,70.10
2019-02-06T05:26:27.211Z,69.60
2019-02-06T05:30:32.552Z,69.60
2019-02-06T05:34:37.128Z,68.90
2019-02-06T05:38:41.945Z,68.20
2019-02-06T05:42:46.681Z,68.90
2019-02-06T05:46:51.304Z,69.30
2019-02-06T05:50:56.017Z,69.40
2019-02-06T05:55:04.276Z,68.70
2019-02-06T05:59:06.846Z,68.10
2019-02-06T06:03:11.491Z,68.10
2019-02-06T06:07:16.085Z,67.10
2019-02-06T06:11:20.643Z,67.20
2019-02-06T06:15:25.200Z,66.80
2019-02-06T06:19:29.908Z,69.30
2019-02-06T06:23:35.053Z,68.40
2019-02-06T06:27:39.640Z,68.30
2019-02-06T06:31:45.040Z,68.60
2019-02-06T06:35:49.584Z,68.40
2019-02-06T06:39:54.426Z,69.00
2019-02-06T06:43:58.988Z,69.80
2019-02-06T06:48:03.569Z,69.60
2019-02-06T06:52:08.309Z,69.90
2019-02-06T06:56:12.853Z,70.50
2019-02-06T07:00:20.072Z,69.60
2019-02-06T07:04:24.640Z,71.60
2019-02-06T07:08:29.902Z,70.00
2019-02-06T07:12:34.478Z,69.50
2019-02-06T07:16:39.018Z,69.20
2019-02-06T07:20:43.765Z,67.50
2019-02-06T07:24:48.348Z,67.20
2019-02-06T07:28:52.944Z,67.60
2019-02-06T07:32:57.692Z,67.20
2019-02-06T07:37:02.267Z,67.80
2019-02-06T07:41:06.995Z,67.70
2019-02-06T07:45:11.685Z,67.20
2019-02-06T07:49:16.252Z,66.20
2019-02-06T07:53:21.297Z,65.60
2019-02-06T07:57:25.864Z,65.60
2019-02-06T08:01:30.884Z,68.00
2019-02-06T08:05:36.785Z,67.70
2019-02-06T08:09:41.453Z,67.60
2019-02-06T08:13:46.035Z,67.50
2019-02-06T08:17:50.613Z,67.90
2019-02-06T08:21:55.186Z,67.50
2019-02-06T08:25:59.849Z,67.40
2019-02-06T08:30:05.648Z,67.80
2019-02-06T08:34:10.210Z,68.30
2019-02-06T08:38:15.488Z,68.70
2019-02-06T08:42:20.029Z,69.30
2019-02-06T08:46:24.596Z,68.60
2019-02-06T08:50:29.524Z,68.50
2019-02-06T08:54:34.224Z,67.80
2019-02-06T08:58:38.785Z,68.20
2019-02-06T09:02:43.708Z,66.90
2019-02-06T09:06:48.270Z,67.00
2019-02-06T09:10:52.852Z,68.00
2019-02-06T09:14:57.408Z,66.90
2019-02-06T09:19:01.963Z,65.40
2019-02-06T09:23:07.104Z,65.00
2019-02-06T09:27:11.669Z,64.70
2019-02-06T09:31:16.841Z,64.80
2019-02-06T09:35:21.489Z,64.60
2019-02-06T09:39:26.051Z,64.80
2019-02-06T09:43:30.624Z,64.90
2019-02-06T09:47:35.259Z,65.00
2019-02-06T09:51:39.853Z,64.30
2019-02-06T09:55:44.486Z,63.10
2019-02-06T09:59:49.428Z,62.90
2019-02-06T10:03:53.973Z,63.50
2019-02-06T10:07:58.554Z,63.10
2019-02-06T10:12:03.193Z,63.90
2019-02-06T10:16:08.219Z,63.60
2019-02-06T10:20:14.796Z,63.80
2019-02-06T10:24:19.496Z,63.40
2019-02-06T10:28:24.469Z,63.90
2019-02-06T10:32:29.082Z,64.00
2019-02-06T10:36:33.640Z,63.70
2019-02-06T10:40:38.240Z,62.90
2019-02-06T10:44:42.796Z,62.50
2019-02-06T10:48:47.336Z,61.80
2019-02-06T10:52:51.906Z,61.60
2019-02-06T10:56:56.460Z,62.20
2019-02-06T11:01:02.108Z,62.00
2019-02-06T11:05:06.968Z,62.10
2019-02-06T11:09:11.500Z,62.80
2019-02-06T11:13:16.073Z,63.00
2019-02-06T11:17:20.633Z,63.90
2019-02-06T11:21:25.195Z,64.10
2019-02-06T11:25:29.772Z,64.00
2019-02-06T11:29:34.387Z,64.80
2019-02-06T11:33:38.972Z,64.40
2019-02-06T11:37:43.529Z,63.80
2019-02-06T11:41:48.117Z,63.20
2019-02-06T11:45:53.161Z,62.00
2019-02-06T11:49:59.620Z,62.00
2019-02-06T11:54:04.274Z,62.50
2019-02-06T11:58:08.845Z,62.00
2019-02-06T12:02:14.684Z,62.60
2019-02-06T12:06:19.232Z,61.80
2019-02-06T12:10:24.193Z,61.60
2019-02-06T12:14:28.728Z,61.20
2019-02-06T12:18:33.297Z,61.20
2019-02-06T12:22:37.888Z,62.20
2019-02-06T12:26:42.490Z,63.60
2019-02-06T12:30:47.317Z,63.00
2019-02-06T12:34:51.860Z,62.30
2019-02-06T12:38:56.991Z,62.00
2019-02-06T12:43:01.558Z,61.80
2019-02-06T12:47:06.132Z,60.90
2019-02-06T12:51:10.993Z,61.40
2019-02-06T12:55:21.681Z,61.30
2019-02-06T12:59:26.624Z,61.20
2019-02-06T13:03:31.188Z,61.20
2019-02-06T13:07:35.755Z,60.50
2019-02-06T13:11:40.432Z,61.00
2019-02-06T13:15:47.218Z,60.70
2019-02-06T13:19:51.329Z,61.20
2019-02-06T13:23:55.949Z,60.30
2019-02-06T13:28:00.521Z,58.30
2019-02-06T13:32:05.544Z,56.60
2019-02-06T13:36:11.285Z,55.50
2019-02-06T13:40:17.764Z,56.30
2019-02-06T13:44:22.332Z,56.20
2019-02-06T13:48:26.881Z,56.00
2019-02-06T13:52:31.453Z,57.00
2019-02-06T13:56:37.082Z,57.90
2019-02-06T14:00:42.090Z,58.30
2019-02-06T14:04:46.645Z,58.10
2019-02-06T14:08:52.097Z,59.40
2019-02-06T14:12:56.667Z,60.00
2019-02-06T14:17:01.224Z,60.20
2019-02-06T14:21:05.815Z,60.20
2019-02-06T14:25:37.537Z,60.20
2019-02-06T14:30:07.673Z,60.50
2019-02-06T14:34:41.640Z,60.40
2019-02-06T14:39:33.581Z,59.90
2019-02-06T14:43:50.021Z,61.00
2019-02-06T14:48:08.158Z,61.00
2019-02-06T14:53:09.093Z,60.90
2019-02-06T14:58:04.144Z,60.90
2019-02-06T15:02:49.005Z,61.60
2019-02-06T15:07:51.121Z,61.90
2019-02-06T15:12:20.543Z,62.20
2019-02-06T15:17:18.978Z,63.10
2019-02-06T15:21:44.015Z,64.20
2019-02-06T15:26:26.794Z,63.50
2019-02-06T15:30:55.938Z,62.80
2019-02-06T15:35:46.811Z,62.50
2019-02-06T15:40:27.760Z,63.20
2019-02-06T15:45:10.453Z,63.40
2019-02-06T15:49:58.195Z,63.10
2019-02-06T15:54:28.184Z,62.80
2019-02-06T15:59:26.745Z,63.00
2019-02-06T16:04:32.173Z,63.90
2019-02-06T16:08:49.348Z,63.60
2019-02-06T16:13:35.996Z,64.40
2019-02-06T16:18:07.239Z,65.00
2019-02-06T16:23:02.979Z,65.80
2019-02-06T16:27:39.841Z,65.80
2019-02-06T16:32:33.647Z,65.70
2019-02-06T16:37:22.918Z,65.90
2019-02-06T16:42:18.223Z,65.80
2019-02-06T16:47:14.684Z,66.20
2019-02-06T16:51:36.628Z,66.60
2019-02-06T16:55:59.208Z,66.40
2019-02-06T17:00:45.828Z,67.40
2019-02-06T17:05:04.205Z,66.80
2019-02-06T17:09:35.137Z,66.80
2019-02-06T17:14:26.251Z,66.70
2019-02-06T17:19:08.983Z,66.60
2019-02-06T17:24:07.155Z,66.40
2019-02-06T17:28:49.474Z,67.20
2019-02-06T17:33:28.030Z,67.40
2019-02-06T17:38:09.313Z,67.60
2019-02-06T17:42:53.936Z,68.10
2019-02-06T17:47:09.160Z,68.60
2019-02-06T17:51:30.096Z,68.80
2019-02-06T17:55:34.724Z,68.90
2019-02-06T17:59:39.304Z,69.00
2019-02-06T18:03:47.595Z,69.00
2019-02-06T18:07:53.220Z,69.50
2019-02-06T18:11:58.377Z,69.40
2019-02-06T18:16:04.020Z,69.50
2019-02-06T18:20:11.464Z,69.50
2019-02-06T18:24:16.214Z,69.80
2019-02-06T18:28:20.913Z,69.80
2019-02-06T18:32:25.559Z,69.00
2019-02-06T18:36:30.669Z,69.70
2019-02-06T18:40:35.264Z,69.70
2019-02-06T18:44:40.000Z,69.20
2019-02-06T18:48:46.125Z,68.90
2019-02-06T18:52:51.052Z,68.70
2019-02-06T18:56:55.780Z,68.70
2019-02-06T19:01:00.461Z,69.90
2019-02-06T19:05:06.160Z,69.90
2019-02-06T19:09:12.976Z,70.30
2019-02-06T19:13:17.615Z,69.80
2019-02-06T19:17:22.362Z,68.60
2019-02-06T19:21:27.132Z,68.90
2019-02-06T19:25:32.211Z,68.50
2019-02-06T19:29:36.805Z,68.80
2019-02-06T19:33:41.650Z,67.70
2019-02-06T19:37:48.415Z,67.10
2019-02-06T19:41:53.942Z,66.40
2019-02-06T19:45:59.213Z,67.00
2019-02-06T19:50:08.705Z,67.40
2019-02-06T19:54:15.100Z,68.10
2019-02-06T19:58:20.469Z,69.50
2019-02-06T20:02:26.025Z,68.60
2019-02-06T20:06:32.678Z,69.00
2019-02-06T20:10:40.849Z,69.30
2019-02-06T20:14:46.372Z,68.90
2019-02-06T20:18:51.767Z,68.80
2019-02-06T20:22:57.592Z,69.00
2019-02-06T20:27:03.089Z,68.70
2019-02-06T20:31:14.988Z,68.70
2019-02-06T20:35:23.149Z,68.70
2019-02-06T20:39:44.644Z,69.20
2019-02-06T20:43:58.230Z,69.00
2019-02-06T20:48:03.415Z,69.00
2019-02-06T20:52:09.046Z,68.40
2019-02-06T20:56:14.864Z,68.00
2019-02-06T21:00:28.626Z,68.40
2019-02-06T21:04:33.448Z,69.00
2019-02-06T21:08:38.824Z,69.10
2019-02-06T21:12:44.664Z,68.30
2019-02-06T21:16:49.429Z,68.70
2019-02-06T21:20:56.643Z,70.00
2019-02-06T21:25:01.581Z,70.40
2019-02-06T21:29:26.200Z,69.90
2019-02-06T21:33:34.411Z,69.90
2019-02-06T21:37:52.219Z,70.30
2019-02-06T21:41:57.696Z,70.60
2019-02-06T21:46:02.309Z,70.90
2019-02-06T21:50:09.469Z,71.40
2019-02-06T21:54:14.369Z,70.60
2019-02-06T21:58:18.959Z,72.60
2019-02-06T22:02:25.032Z,72.80
2019-02-06T22:06:29.668Z,72.50
2019-02-06T22:10:35.505Z,72.80
2019-02-06T22:14:40.336Z,73.10
2019-02-06T22:18:44.916Z,73.60
2019-02-06T22:22:49.841Z,72.60
2019-02-06T22:26:54.428Z,73.00
2019-02-06T22:30:59.063Z,71.30
2019-02-06T22:35:03.765Z,72.10
2019-02-06T22:39:11.378Z,73.00
2019-02-06T22:43:16.237Z,72.60
2019-02-06T22:47:21.351Z,72.50
2019-02-06T22:51:26.128Z,72.50
2019-02-06T22:55:30.697Z,71.00
2019-02-06T22:59:35.533Z,71.10
2019-02-06T23:03:42.460Z,72.00
2019-02-06T23:07:47.318Z,71.90
2019-02-06T23:11:52.140Z,71.50
2019-02-06T23:15:56.779Z,71.70
2019-02-06T23:20:01.515Z,71.30
2019-02-06T23:24:06.379Z,70.50
2019-02-06T23:28:10.973Z,70.40
2019-02-06T23:32:15.621Z,70.00
2019-02-06T23:36:20.169Z,69.50
2019-02-06T23:40:24.835Z,68.90
2019-02-06T23:44:29.535Z,68.70
2019-02-06T23:48:34.201Z,68.00
2019-02-06T23:52:39.025Z,67.80
2019-02-06T23:56:43.673Z,68.80
